createdAt,value
2018-08-13T00:00:36.835Z,0.00
2018-08-13T00:01:36.825Z,0.00
2018-08-13T00:02:36.807Z,0.00
2018-08-13T00:03:36.829Z,0.00
2018-08-13T00:04:36.787Z,0.00
2018-08-13T00:05:36.778Z,0.00
2018-08-13T00:06:36.766Z,0.00
2018-08-13T00:07:36.759Z,0.00
2018-08-13T00:08:36.756Z,0.00
2018-08-13T00:09:36.734Z,0.00
2018-08-13T00:10:36.719Z,0.00
2018-08-13T00:11:36.709Z,0.00
2018-08-13T00:12:36.702Z,0.00
2018-08-13T00:13:36.695Z,0.00
2018-08-13T00:14:36.681Z,0.00
2018-08-13T00:15:36.671Z,0.00
2018-08-13T00:16:36.665Z,0.00
2018-08-13T00:17:36.647Z,0.00
2018-08-13T00:18:36.657Z,0.00
2018-08-13T00:19:36.623Z,0.00
2018-08-13T00:20:36.622Z,0.00
2018-08-13T00:21:36.602Z,0.00
2018-08-13T00:22:36.589Z,0.00
2018-08-13T00:23:36.587Z,0.00
2018-08-13T00:24:36.566Z,0.00
2018-08-13T00:25:36.554Z,0.00
2018-08-13T00:26:36.570Z,0.00
2018-08-13T00:27:36.539Z,0.00
2018-08-13T00:28:36.539Z,0.00
2018-08-13T00:29:36.511Z,0.00
2018-08-13T00:30:36.503Z,0.00
2018-08-13T00:31:36.497Z,0.00
2018-08-13T00:32:36.478Z,0.00
2018-08-13T00:33:36.483Z,0.00
2018-08-13T00:34:36.462Z,0.00
2018-08-13T00:35:36.446Z,0.00
2018-08-13T00:36:36.443Z,0.00
2018-08-13T00:37:36.431Z,0.00
2018-08-13T00:38:36.423Z,0.00
2018-08-13T00:39:36.429Z,0.00
2018-08-13T00:40:36.391Z,0.00
2018-08-13T00:41:36.379Z,0.00
2018-08-13T00:42:36.376Z,0.00
2018-08-13T00:43:36.377Z,0.00
2018-08-13T00:44:36.354Z,0.00
2018-08-13T00:45:36.338Z,0.00
2018-08-13T00:46:36.324Z,0.00
2018-08-13T00:47:36.323Z,0.00
2018-08-13T00:48:36.319Z,0.00
2018-08-13T00:49:36.314Z,0.00
2018-08-13T00:50:36.281Z,0.00
2018-08-13T00:51:36.270Z,0.00
2018-08-13T00:52:36.269Z,0.00
2018-08-13T00:53:36.258Z,0.00
2018-08-13T00:54:36.238Z,0.00
2018-08-13T00:55:36.233Z,0.00
2018-08-13T00:56:36.215Z,0.00
2018-08-13T00:57:36.212Z,0.00
2018-08-13T00:58:36.202Z,0.00
2018-08-13T00:59:36.182Z,0.00
2018-08-13T01:00:36.171Z,0.00
2018-08-13T01:01:36.159Z,0.00
2018-08-13T01:02:36.164Z,0.00
2018-08-13T01:03:36.153Z,0.00
2018-08-13T01:04:36.127Z,0.00
2018-08-13T01:05:36.135Z,0.00
2018-08-13T01:06:36.106Z,0.00
2018-08-13T01:07:36.097Z,0.00
2018-08-13T01:08:36.097Z,0.00
2018-08-13T01:09:36.069Z,0.00
2018-08-13T01:10:36.069Z,0.00
2018-08-13T01:11:36.051Z,0.00
2018-08-13T01:12:36.067Z,0.00
2018-08-13T01:13:36.044Z,0.00
2018-08-13T01:14:36.016Z,0.00
2018-08-13T01:15:36.014Z,0.00
2018-08-13T01:16:35.994Z,0.00
2018-08-13T01:17:35.983Z,0.00
2018-08-13T01:18:35.988Z,0.00
2018-08-13T01:19:35.961Z,0.00
2018-08-13T01:20:35.950Z,0.00
2018-08-13T01:21:35.942Z,0.00
2018-08-13T01:22:35.953Z,0.00
2018-08-13T01:23:35.933Z,0.00
2018-08-13T01:24:35.915Z,0.00
2018-08-13T01:25:35.914Z,0.00
2018-08-13T01:26:35.892Z,0.00
2018-08-13T01:27:35.872Z,0.00
2018-08-13T01:28:35.867Z,0.00
2018-08-13T01:29:35.858Z,0.00
2018-08-13T01:30:35.837Z,0.00
2018-08-13T01:31:35.837Z,0.00
2018-08-13T01:32:35.815Z,0.00
2018-08-13T01:33:35.806Z,0.00
2018-08-13T01:34:35.811Z,0.00
2018-08-13T01:35:35.782Z,0.00
2018-08-13T01:36:35.777Z,0.00
2018-08-13T01:37:35.762Z,0.00
2018-08-13T01:38:35.751Z,0.00
2018-08-13T01:39:35.764Z,0.00
2018-08-13T01:40:35.735Z,0.00
2018-08-13T01:41:35.731Z,0.00
2018-08-13T01:42:35.739Z,0.00
2018-08-13T01:43:35.701Z,0.00
2018-08-13T01:44:35.708Z,0.00
2018-08-13T01:45:35.668Z,0.00
2018-08-13T01:46:35.657Z,0.00
2018-08-13T01:47:35.647Z,0.00
2018-08-13T01:48:35.661Z,0.00
2018-08-13T01:49:35.645Z,0.00
2018-08-13T01:50:35.614Z,0.00
2018-08-13T01:51:35.601Z,0.00
2018-08-13T01:52:35.589Z,0.00
2018-08-13T01:53:35.578Z,0.00
2018-08-13T01:54:35.586Z,0.00
2018-08-13T01:55:35.555Z,0.00
2018-08-13T01:56:35.545Z,0.00
2018-08-13T01:57:35.532Z,0.00
2018-08-13T01:58:35.523Z,0.00
2018-08-13T01:59:35.522Z,0.00
2018-08-13T02:00:35.508Z,0.00
2018-08-13T02:01:35.538Z,0.00
2018-08-13T02:02:35.478Z,0.00
2018-08-13T02:03:35.470Z,0.00
2018-08-13T02:04:35.466Z,0.00
2018-08-13T02:05:35.445Z,0.00
2018-08-13T02:06:35.437Z,0.00
2018-08-13T02:07:35.429Z,0.00
2018-08-13T02:08:35.413Z,0.00
2018-08-13T02:09:35.411Z,0.00
2018-08-13T02:10:35.388Z,0.00
2018-08-13T02:11:35.398Z,0.00
2018-08-13T02:12:35.366Z,0.00
2018-08-13T02:13:35.362Z,0.00
2018-08-13T02:14:35.359Z,0.00
2018-08-13T02:15:35.332Z,0.00
2018-08-13T02:16:35.322Z,0.00
2018-08-13T02:17:35.332Z,0.00
2018-08-13T02:18:35.302Z,0.00
2018-08-13T02:19:35.307Z,0.00
2018-08-13T02:20:35.283Z,0.00
2018-08-13T02:21:35.277Z,0.00
2018-08-13T02:22:35.270Z,0.00
2018-08-13T02:23:35.243Z,0.00
2018-08-13T02:24:35.244Z,0.00
2018-08-13T02:25:35.248Z,0.00
2018-08-13T02:26:35.218Z,0.00
2018-08-13T02:27:35.200Z,0.00
2018-08-13T02:28:35.191Z,0.00
2018-08-13T02:29:35.189Z,0.00
2018-08-13T02:30:35.164Z,0.00
2018-08-13T02:31:35.153Z,0.00
2018-08-13T02:32:35.141Z,0.00
2018-08-13T02:33:35.132Z,0.00
2018-08-13T02:34:35.145Z,0.00
2018-08-13T02:35:35.113Z,0.00
2018-08-13T02:36:35.098Z,0.00
2018-08-13T02:37:35.101Z,0.00
2018-08-13T02:38:35.076Z,0.00
2018-08-13T02:39:35.077Z,0.00
2018-08-13T02:40:35.052Z,0.00
2018-08-13T02:41:35.052Z,0.00
2018-08-13T02:42:35.037Z,0.00
2018-08-13T02:43:35.068Z,0.00
2018-08-13T02:44:35.021Z,0.00
2018-08-13T02:45:35.005Z,0.00
2018-08-13T02:46:34.996Z,0.00
2018-08-13T02:47:34.979Z,0.00
2018-08-13T02:48:34.963Z,0.00
2018-08-13T02:49:34.975Z,0.00
2018-08-13T02:50:34.944Z,0.00
2018-08-13T02:51:34.930Z,0.00
2018-08-13T02:52:34.922Z,0.00
2018-08-13T02:53:34.914Z,0.00
2018-08-13T02:54:34.923Z,0.00
2018-08-13T02:55:34.885Z,0.00
2018-08-13T02:56:34.872Z,0.00
2018-08-13T02:57:34.884Z,0.00
2018-08-13T02:58:34.896Z,0.00
2018-08-13T02:59:34.840Z,0.00
2018-08-13T03:00:34.839Z,0.00
2018-08-13T03:01:34.822Z,0.00
2018-08-13T03:02:34.805Z,0.00
2018-08-13T03:03:34.796Z,0.00
2018-08-13T03:04:34.832Z,0.00
2018-08-13T03:05:34.789Z,0.00
2018-08-13T03:06:34.776Z,0.00
2018-08-13T03:07:34.748Z,0.00
2018-08-13T03:08:34.750Z,0.00
2018-08-13T03:09:34.814Z,0.00
2018-08-13T03:10:34.759Z,0.00
2018-08-13T03:11:34.706Z,0.00
2018-08-13T03:12:34.694Z,0.00
2018-08-13T03:13:34.701Z,0.00
2018-08-13T03:14:34.686Z,0.00
2018-08-13T03:15:34.672Z,0.00
2018-08-13T03:16:34.670Z,0.00
2018-08-13T03:17:34.661Z,0.00
2018-08-13T03:18:34.627Z,0.00
2018-08-13T03:19:34.613Z,0.00
2018-08-13T03:20:34.633Z,0.00
2018-08-13T03:21:34.599Z,0.00
2018-08-13T03:22:34.607Z,0.00
2018-08-13T03:23:34.589Z,0.00
2018-08-13T03:24:34.565Z,0.00
2018-08-13T03:25:34.562Z,0.00
2018-08-13T03:26:34.536Z,0.00
2018-08-13T03:27:34.523Z,0.00
2018-08-13T03:28:34.514Z,0.00
2018-08-13T03:29:34.505Z,0.00
2018-08-13T03:30:34.513Z,0.00
2018-08-13T03:31:34.543Z,0.00
2018-08-13T03:32:34.468Z,0.00
2018-08-13T03:33:34.502Z,0.00
2018-08-13T03:34:34.445Z,0.00
2018-08-13T03:35:34.467Z,0.00
2018-08-13T03:36:34.424Z,0.00
2018-08-13T03:37:34.414Z,0.00
2018-08-13T03:38:34.402Z,0.00
2018-08-13T03:39:34.404Z,0.00
2018-08-13T03:40:34.392Z,0.00
2018-08-13T03:41:34.367Z,0.00
2018-08-13T03:42:34.358Z,0.00
2018-08-13T03:43:34.370Z,0.00
2018-08-13T03:44:34.336Z,0.00
2018-08-13T03:45:34.336Z,0.00
2018-08-13T03:46:34.318Z,0.00
2018-08-13T03:47:34.310Z,0.00
2018-08-13T03:48:34.293Z,0.00
2018-08-13T03:49:34.283Z,0.00
2018-08-13T03:50:34.280Z,0.00
2018-08-13T03:51:34.257Z,0.00
2018-08-13T03:52:34.251Z,0.00
2018-08-13T03:53:34.237Z,0.00
2018-08-13T03:54:34.245Z,0.00
2018-08-13T03:55:34.222Z,0.00
2018-08-13T03:56:34.214Z,4.00
2018-08-13T03:57:34.206Z,4.00
2018-08-13T03:58:34.288Z,0.00
2018-08-13T03:59:34.169Z,0.00
2018-08-13T04:00:34.169Z,0.00
2018-08-13T04:01:34.163Z,0.00
2018-08-13T04:02:34.135Z,0.00
2018-08-13T04:03:34.129Z,4.00
2018-08-13T04:04:34.121Z,4.00
2018-08-13T04:05:34.129Z,4.00
2018-08-13T04:06:34.113Z,4.00
2018-08-13T04:07:34.082Z,4.00
2018-08-13T04:08:34.071Z,4.00
2018-08-13T04:09:34.062Z,4.00
2018-08-13T04:10:34.056Z,0.00
2018-08-13T04:11:34.050Z,4.00
2018-08-13T04:12:34.029Z,4.00
2018-08-13T04:13:34.022Z,4.00
2018-08-13T04:14:34.007Z,4.00
2018-08-13T04:15:33.997Z,4.00
2018-08-13T04:16:34.035Z,4.00
2018-08-13T04:17:33.976Z,4.00
2018-08-13T04:18:33.967Z,4.00
2018-08-13T04:19:33.960Z,4.00
2018-08-13T04:20:33.942Z,8.00
2018-08-13T04:21:33.953Z,4.00
2018-08-13T04:22:33.929Z,4.00
2018-08-13T04:23:33.910Z,4.00
2018-08-13T04:24:33.899Z,8.00
2018-08-13T04:25:33.889Z,4.00
2018-08-13T04:26:33.889Z,8.00
2018-08-13T04:27:33.867Z,8.00
2018-08-13T04:28:33.867Z,8.00
2018-08-13T04:29:33.866Z,8.00
2018-08-13T04:30:33.843Z,8.00
2018-08-13T04:31:33.838Z,8.00
2018-08-13T04:32:33.817Z,12.00
2018-08-13T04:33:33.803Z,8.00
2018-08-13T04:34:33.804Z,12.00
2018-08-13T04:35:33.789Z,8.00
2018-08-13T04:36:33.769Z,12.00
2018-08-13T04:37:33.789Z,12.00
2018-08-13T04:38:33.773Z,12.00
2018-08-13T04:39:33.739Z,16.00
2018-08-13T04:40:33.735Z,12.00
2018-08-13T04:41:33.720Z,16.00
2018-08-13T04:42:33.727Z,16.00
2018-08-13T04:43:33.694Z,12.00
2018-08-13T04:44:33.682Z,16.00
2018-08-13T04:45:33.671Z,20.00
2018-08-13T04:46:33.665Z,16.00
2018-08-13T04:47:33.660Z,20.00
2018-08-13T04:48:33.639Z,20.00
2018-08-13T04:49:33.628Z,20.00
2018-08-13T04:50:33.616Z,24.00
2018-08-13T04:51:33.605Z,24.00
2018-08-13T04:52:33.620Z,24.00
2018-08-13T04:53:33.586Z,28.00
2018-08-13T04:54:33.573Z,24.00
2018-08-13T04:55:33.564Z,28.00
2018-08-13T04:56:33.552Z,28.00
2018-08-13T04:57:33.551Z,28.00
2018-08-13T04:58:33.533Z,24.00
2018-08-13T04:59:33.518Z,28.00
2018-08-13T05:00:33.510Z,28.00
2018-08-13T05:01:33.498Z,32.00
2018-08-13T05:02:33.568Z,36.00
2018-08-13T05:03:33.477Z,32.00
2018-08-13T05:04:33.474Z,40.00
2018-08-13T05:05:33.456Z,44.00
2018-08-13T05:06:33.445Z,48.00
2018-08-13T05:07:33.437Z,52.00
2018-08-13T05:08:33.432Z,60.00
2018-08-13T05:09:33.415Z,72.00
2018-08-13T05:10:33.412Z,88.00
2018-08-13T05:11:33.391Z,96.00
2018-08-13T05:12:33.384Z,112.00
2018-08-13T05:13:33.379Z,124.00
2018-08-13T05:14:33.358Z,116.00
2018-08-13T05:15:33.357Z,132.00
2018-08-13T05:16:33.338Z,152.00
2018-08-13T05:17:33.339Z,160.00
2018-08-13T05:18:33.332Z,164.00
2018-08-13T05:19:33.305Z,160.00
2018-08-13T05:20:33.298Z,152.00
2018-08-13T05:21:33.288Z,64.00
2018-08-13T05:22:33.278Z,60.00
2018-08-13T05:23:33.271Z,60.00
2018-08-13T05:24:33.252Z,60.00
2018-08-13T05:25:33.282Z,60.00
2018-08-13T05:26:33.229Z,64.00
2018-08-13T05:27:33.236Z,60.00
2018-08-13T05:28:33.216Z,72.00
2018-08-13T05:29:33.198Z,104.00
2018-08-13T05:30:33.187Z,152.00
2018-08-13T05:31:33.172Z,100.00
2018-08-13T05:32:33.161Z,96.00
2018-08-13T05:33:33.162Z,188.00
2018-08-13T05:34:33.140Z,172.00
2018-08-13T05:35:33.161Z,148.00
2018-08-13T05:36:33.121Z,164.00
2018-08-13T05:37:33.108Z,212.00
2018-08-13T05:38:33.124Z,160.00
2018-08-13T05:39:33.086Z,144.00
2018-08-13T05:40:33.077Z,56.00
2018-08-13T05:41:33.072Z,96.00
2018-08-13T05:42:33.058Z,96.00
2018-08-13T05:43:33.044Z,44.00
2018-08-13T05:44:33.049Z,36.00
2018-08-13T05:45:33.020Z,36.00
2018-08-13T05:46:33.012Z,32.00
2018-08-13T05:47:33.017Z,36.00
2018-08-13T05:48:32.994Z,40.00
2018-08-13T05:49:32.989Z,52.00
2018-08-13T05:50:32.967Z,136.00
2018-08-13T05:51:32.955Z,32.00
2018-08-13T05:52:32.944Z,28.00
2018-08-13T05:53:32.933Z,28.00
2018-08-13T05:54:32.950Z,24.00
2018-08-13T05:55:32.914Z,28.00
2018-08-13T05:56:32.899Z,32.00
2018-08-13T05:57:32.897Z,32.00
2018-08-13T05:58:32.879Z,36.00
2018-08-13T05:59:32.896Z,40.00
2018-08-13T06:00:32.856Z,40.00
2018-08-13T06:01:32.864Z,44.00
2018-08-13T06:02:32.842Z,48.00
2018-08-13T06:03:32.824Z,52.00
2018-08-13T06:04:32.825Z,60.00
2018-08-13T06:05:32.803Z,72.00
2018-08-13T06:06:32.792Z,76.00
2018-08-13T06:07:32.791Z,108.00
2018-08-13T06:08:32.785Z,112.00
2018-08-13T06:09:32.773Z,68.00
2018-08-13T06:10:32.750Z,60.00
2018-08-13T06:11:32.813Z,60.00
2018-08-13T06:12:32.728Z,60.00
2018-08-13T06:13:32.717Z,60.00
2018-08-13T06:14:32.895Z,56.00
2018-08-13T06:15:32.695Z,52.00
2018-08-13T06:16:32.687Z,48.00
2018-08-13T06:17:32.675Z,44.00
2018-08-13T06:18:32.664Z,44.00
2018-08-13T06:19:32.664Z,40.00
2018-08-13T06:20:32.659Z,40.00
2018-08-13T06:21:32.632Z,36.00
2018-08-13T06:22:32.619Z,36.00
2018-08-13T06:23:32.615Z,36.00
2018-08-13T06:24:32.629Z,36.00
2018-08-13T06:25:32.586Z,40.00
2018-08-13T06:26:32.577Z,36.00
2018-08-13T06:27:32.598Z,40.00
2018-08-13T06:28:32.556Z,40.00
2018-08-13T06:29:32.562Z,40.00
2018-08-13T06:30:32.543Z,40.00
2018-08-13T06:31:32.522Z,40.00
2018-08-13T06:32:32.512Z,36.00
2018-08-13T06:33:32.503Z,36.00
2018-08-13T06:34:32.560Z,32.00
2018-08-13T06:35:32.485Z,36.00
2018-08-13T06:36:32.476Z,36.00
2018-08-13T06:37:32.463Z,32.00
2018-08-13T06:38:32.446Z,32.00
2018-08-13T06:39:32.435Z,36.00
2018-08-13T06:40:32.444Z,36.00
2018-08-13T06:41:32.417Z,36.00
2018-08-13T06:42:32.404Z,36.00
2018-08-13T06:43:32.393Z,36.00
2018-08-13T06:44:32.382Z,32.00
2018-08-13T06:45:32.383Z,36.00
2018-08-13T06:46:32.367Z,40.00
2018-08-13T06:47:32.350Z,40.00
2018-08-13T06:48:32.345Z,44.00
2018-08-13T06:49:32.328Z,44.00
2018-08-13T06:50:32.347Z,48.00
2018-08-13T06:51:32.310Z,52.00
2018-08-13T06:52:32.296Z,56.00
2018-08-13T06:53:32.290Z,56.00
2018-08-13T06:54:32.274Z,56.00
2018-08-13T06:55:32.274Z,60.00
2018-08-13T06:56:32.252Z,60.00
2018-08-13T06:57:32.255Z,64.00
2018-08-13T06:58:32.230Z,60.00
2018-08-13T06:59:32.272Z,64.00
2018-08-13T07:00:32.218Z,60.00
2018-08-13T07:01:32.198Z,56.00
2018-08-13T07:02:32.186Z,52.00
2018-08-13T07:03:32.175Z,40.00
2018-08-13T07:04:32.166Z,36.00
2018-08-13T07:05:32.190Z,28.00
2018-08-13T07:06:32.146Z,28.00
2018-08-13T07:07:32.132Z,28.00
2018-08-13T07:08:32.120Z,24.00
2018-08-13T07:09:32.183Z,20.00
2018-08-13T07:10:32.113Z,24.00
2018-08-13T07:11:32.090Z,24.00
2018-08-13T07:12:32.080Z,24.00
2018-08-13T07:13:32.069Z,24.00
2018-08-13T07:14:32.057Z,24.00
2018-08-13T07:15:32.060Z,24.00
2018-08-13T07:16:32.035Z,24.00
2018-08-13T07:17:32.025Z,20.00
2018-08-13T07:18:32.012Z,20.00
2018-08-13T07:19:32.005Z,20.00
2018-08-13T07:20:32.025Z,20.00
2018-08-13T07:21:31.980Z,16.00
2018-08-13T07:22:32.070Z,20.00
2018-08-13T07:23:31.960Z,20.00
2018-08-13T07:24:31.948Z,20.00
2018-08-13T07:25:31.952Z,24.00
2018-08-13T07:26:31.925Z,24.00
2018-08-13T07:27:31.924Z,24.00
2018-08-13T07:28:31.916Z,24.00
2018-08-13T07:29:31.893Z,28.00
2018-08-13T07:30:31.914Z,24.00
2018-08-13T07:31:31.871Z,28.00
2018-08-13T07:32:31.864Z,24.00
2018-08-13T07:33:31.938Z,28.00
2018-08-13T07:34:31.841Z,28.00
2018-08-13T07:35:32.261Z,28.00
2018-08-13T07:36:31.819Z,32.00
2018-08-13T07:37:31.808Z,28.00
2018-08-13T07:38:31.799Z,32.00
2018-08-13T07:39:31.898Z,32.00
2018-08-13T07:40:31.788Z,32.00
2018-08-13T07:41:31.768Z,32.00
2018-08-13T07:42:31.753Z,32.00
2018-08-13T07:43:31.757Z,32.00
2018-08-13T07:44:31.733Z,36.00
2018-08-13T07:45:31.777Z,32.00
2018-08-13T07:46:31.731Z,32.00
2018-08-13T07:47:31.700Z,28.00
2018-08-13T07:48:31.700Z,28.00
2018-08-13T07:49:31.678Z,24.00
2018-08-13T07:50:31.680Z,20.00
2018-08-13T07:51:31.662Z,24.00
2018-08-13T07:52:31.647Z,24.00
2018-08-13T07:53:31.665Z,24.00
2018-08-13T07:54:31.625Z,24.00
2018-08-13T07:55:31.625Z,24.00
2018-08-13T07:56:31.608Z,28.00
2018-08-13T07:57:31.594Z,28.00
2018-08-13T07:58:31.586Z,32.00
2018-08-13T07:59:31.574Z,28.00
2018-08-13T08:00:31.574Z,28.00
2018-08-13T08:01:31.552Z,32.00
2018-08-13T08:02:31.542Z,32.00
2018-08-13T08:03:31.533Z,32.00
2018-08-13T08:04:31.520Z,32.00
2018-08-13T08:05:31.538Z,32.00
2018-08-13T08:06:31.500Z,28.00
2018-08-13T08:07:31.487Z,28.00
2018-08-13T08:08:31.475Z,28.00
2018-08-13T08:09:31.465Z,28.00
2018-08-13T08:10:31.455Z,32.00
2018-08-13T08:11:31.457Z,32.00
2018-08-13T08:12:31.433Z,32.00
2018-08-13T08:13:31.422Z,32.00
2018-08-13T08:14:31.444Z,36.00
2018-08-13T08:15:31.400Z,36.00
2018-08-13T08:16:31.411Z,40.00
2018-08-13T08:17:31.381Z,44.00
2018-08-13T08:18:31.369Z,44.00
2018-08-13T08:19:31.359Z,44.00
2018-08-13T08:20:31.347Z,52.00
2018-08-13T08:21:31.347Z,52.00
2018-08-13T08:22:31.325Z,48.00
2018-08-13T08:23:31.314Z,48.00
2018-08-13T08:24:31.304Z,44.00
2018-08-13T08:25:31.294Z,40.00
2018-08-13T08:26:31.321Z,40.00
2018-08-13T08:27:31.271Z,40.00
2018-08-13T08:28:31.262Z,40.00
2018-08-13T08:29:31.254Z,40.00
2018-08-13T08:30:31.239Z,36.00
2018-08-13T08:31:31.249Z,40.00
2018-08-13T08:32:31.289Z,44.00
2018-08-13T08:33:31.208Z,48.00
2018-08-13T08:34:31.251Z,52.00
2018-08-13T08:35:31.192Z,48.00
2018-08-13T08:36:31.210Z,44.00
2018-08-13T08:37:31.166Z,44.00
2018-08-13T08:38:31.190Z,44.00
2018-08-13T08:39:31.158Z,40.00
2018-08-13T08:40:31.154Z,40.00
2018-08-13T08:41:31.161Z,40.00
2018-08-13T08:42:31.112Z,36.00
2018-08-13T08:43:31.101Z,32.00
2018-08-13T08:44:31.090Z,32.00
2018-08-13T08:45:31.080Z,28.00
2018-08-13T08:46:31.079Z,28.00
2018-08-13T08:47:31.057Z,32.00
2018-08-13T08:48:31.046Z,28.00
2018-08-13T08:49:31.070Z,32.00
2018-08-13T08:50:31.050Z,36.00
2018-08-13T08:51:31.047Z,40.00
2018-08-13T08:52:31.008Z,44.00
2018-08-13T08:53:31.017Z,48.00
2018-08-13T08:54:30.996Z,48.00
2018-08-13T08:55:30.972Z,52.00
2018-08-13T08:56:30.966Z,52.00
2018-08-13T08:57:30.960Z,56.00
2018-08-13T08:58:30.953Z,56.00
2018-08-13T08:59:31.024Z,64.00
2018-08-13T09:00:30.915Z,68.00
2018-08-13T09:01:30.915Z,72.00
2018-08-13T09:02:30.928Z,76.00
2018-08-13T09:03:30.882Z,80.00
2018-08-13T09:04:30.872Z,80.00
2018-08-13T09:05:30.859Z,80.00
2018-08-13T09:06:30.849Z,80.00
2018-08-13T09:07:30.849Z,80.00
2018-08-13T09:08:30.829Z,76.00
2018-08-13T09:09:30.836Z,76.00
2018-08-13T09:10:30.804Z,80.00
2018-08-13T09:11:30.815Z,80.00
2018-08-13T09:12:30.813Z,80.00
2018-08-13T09:13:30.771Z,76.00
2018-08-13T09:14:30.762Z,76.00
2018-08-13T09:15:30.748Z,72.00
2018-08-13T09:16:30.738Z,68.00
2018-08-13T09:17:30.735Z,72.00
2018-08-13T09:18:30.715Z,72.00
2018-08-13T09:19:30.709Z,68.00
2018-08-13T09:20:30.701Z,72.00
2018-08-13T09:21:30.682Z,68.00
2018-08-13T09:22:30.683Z,72.00
2018-08-13T09:23:30.662Z,76.00
2018-08-13T09:24:30.649Z,84.00
2018-08-13T09:25:30.672Z,96.00
2018-08-13T09:26:30.628Z,108.00
2018-08-13T09:27:30.648Z,116.00
2018-08-13T09:28:30.605Z,124.00
2018-08-13T09:29:30.626Z,136.00
2018-08-13T09:30:30.634Z,144.00
2018-08-13T09:31:30.573Z,140.00
2018-08-13T09:32:30.569Z,140.00
2018-08-13T09:33:30.562Z,136.00
2018-08-13T09:34:30.538Z,132.00
2018-08-13T09:35:30.529Z,132.00
2018-08-13T09:36:30.569Z,128.00
2018-08-13T09:37:30.505Z,124.00
2018-08-13T09:38:30.508Z,124.00
2018-08-13T09:39:30.482Z,124.00
2018-08-13T09:40:30.479Z,124.00
2018-08-13T09:41:30.503Z,120.00
2018-08-13T09:42:30.447Z,120.00
2018-08-13T09:43:30.523Z,120.00
2018-08-13T09:44:30.436Z,116.00
2018-08-13T09:45:30.416Z,116.00
2018-08-13T09:46:30.403Z,112.00
2018-08-13T09:47:30.392Z,112.00
2018-08-13T09:48:30.406Z,108.00
2018-08-13T09:49:30.455Z,104.00
2018-08-13T09:50:30.364Z,104.00
2018-08-13T09:51:30.347Z,104.00
2018-08-13T09:52:30.338Z,100.00
2018-08-13T09:53:30.379Z,100.00
2018-08-13T09:54:30.315Z,100.00
2018-08-13T09:55:30.313Z,96.00
2018-08-13T09:56:30.343Z,96.00
2018-08-13T09:57:30.279Z,96.00
2018-08-13T09:58:30.387Z,100.00
2018-08-13T09:59:30.256Z,100.00
2018-08-13T10:00:30.246Z,100.00
2018-08-13T10:01:30.238Z,100.00
2018-08-13T10:02:30.222Z,96.00
2018-08-13T10:03:30.226Z,100.00
2018-08-13T10:04:30.212Z,100.00
2018-08-13T10:05:30.200Z,96.00
2018-08-13T10:06:30.179Z,96.00
2018-08-13T10:07:30.167Z,88.00
2018-08-13T10:08:30.167Z,92.00
2018-08-13T10:09:30.145Z,88.00
2018-08-13T10:10:30.134Z,88.00
2018-08-13T10:11:30.139Z,84.00
2018-08-13T10:12:30.117Z,80.00
2018-08-13T10:13:30.110Z,84.00
2018-08-13T10:14:30.089Z,76.00
2018-08-13T10:15:30.077Z,72.00
2018-08-13T10:16:30.070Z,68.00
2018-08-13T10:17:30.068Z,60.00
2018-08-13T10:18:30.063Z,60.00
2018-08-13T10:19:30.034Z,60.00
2018-08-13T10:20:30.022Z,60.00
2018-08-13T10:21:30.012Z,64.00
2018-08-13T10:22:30.006Z,68.00
2018-08-13T10:23:30.020Z,72.00
2018-08-13T10:24:29.979Z,68.00
2018-08-13T10:25:29.965Z,76.00
2018-08-13T10:26:29.953Z,76.00
2018-08-13T10:27:29.942Z,80.00
2018-08-13T10:28:29.960Z,80.00
2018-08-13T10:29:29.926Z,80.00
2018-08-13T10:30:29.909Z,80.00
2018-08-13T10:31:29.899Z,80.00
2018-08-13T10:32:29.886Z,80.00
2018-08-13T10:33:29.880Z,72.00
2018-08-13T10:34:29.893Z,72.00
2018-08-13T10:35:29.851Z,68.00
2018-08-13T10:36:29.841Z,64.00
2018-08-13T10:37:29.860Z,64.00
2018-08-13T10:38:29.819Z,64.00
2018-08-13T10:39:29.819Z,68.00
2018-08-13T10:40:29.796Z,72.00
2018-08-13T10:41:29.785Z,72.00
2018-08-13T10:42:29.773Z,72.00
2018-08-13T10:43:29.814Z,68.00
2018-08-13T10:44:29.761Z,64.00
2018-08-13T10:45:29.741Z,68.00
2018-08-13T10:46:29.729Z,64.00
2018-08-13T10:47:29.719Z,68.00
2018-08-13T10:48:29.710Z,68.00
2018-08-13T10:49:29.784Z,64.00
2018-08-13T10:50:29.685Z,68.00
2018-08-13T10:51:29.672Z,68.00
2018-08-13T10:52:29.664Z,68.00
2018-08-13T10:53:29.710Z,76.00
2018-08-13T10:54:29.650Z,80.00
2018-08-13T10:55:29.631Z,84.00
2018-08-13T10:56:29.623Z,88.00
2018-08-13T10:57:29.629Z,92.00
2018-08-13T10:58:29.595Z,88.00
2018-08-13T10:59:29.613Z,92.00
2018-08-13T11:00:29.575Z,104.00
2018-08-13T11:01:29.571Z,104.00
2018-08-13T11:02:29.551Z,112.00
2018-08-13T11:03:29.545Z,124.00
2018-08-13T11:04:29.543Z,128.00
2018-08-13T11:05:29.519Z,136.00
2018-08-13T11:06:29.508Z,128.00
2018-08-13T11:07:29.496Z,132.00
2018-08-13T11:08:29.486Z,140.00
2018-08-13T11:09:29.490Z,144.00
2018-08-13T11:10:29.511Z,180.00
2018-08-13T11:11:29.453Z,164.00
2018-08-13T11:12:29.443Z,196.00
2018-08-13T11:13:29.453Z,204.00
2018-08-13T11:14:29.443Z,356.00
2018-08-13T11:15:29.408Z,284.00
2018-08-13T11:16:29.410Z,308.00
2018-08-13T11:17:29.389Z,228.00
2018-08-13T11:18:29.375Z,200.00
2018-08-13T11:19:29.377Z,172.00
2018-08-13T11:20:29.359Z,232.00
2018-08-13T11:21:29.408Z,164.00
2018-08-13T11:22:29.330Z,152.00
2018-08-13T11:23:29.320Z,144.00
2018-08-13T11:24:29.337Z,144.00
2018-08-13T11:25:29.343Z,136.00
2018-08-13T11:26:29.296Z,132.00
2018-08-13T11:27:29.275Z,132.00
2018-08-13T11:28:29.283Z,128.00
2018-08-13T11:29:29.255Z,132.00
2018-08-13T11:30:29.254Z,132.00
2018-08-13T11:31:29.231Z,140.00
2018-08-13T11:32:29.218Z,144.00
2018-08-13T11:33:29.219Z,156.00
2018-08-13T11:34:29.196Z,168.00
2018-08-13T11:35:29.197Z,180.00
2018-08-13T11:36:29.175Z,192.00
2018-08-13T11:37:29.163Z,212.00
2018-08-13T11:38:29.167Z,192.00
2018-08-13T11:39:29.147Z,236.00
2018-08-13T11:40:29.166Z,212.00
2018-08-13T11:41:29.122Z,220.00
2018-08-13T11:42:29.112Z,248.00
2018-08-13T11:43:29.122Z,224.00
2018-08-13T11:44:29.085Z,184.00
2018-08-13T11:45:29.084Z,148.00
2018-08-13T11:46:29.126Z,144.00
2018-08-13T11:47:29.053Z,156.00
2018-08-13T11:48:29.043Z,304.00
2018-08-13T11:49:29.030Z,348.00
2018-08-13T11:50:29.033Z,340.00
2018-08-13T11:51:29.008Z,312.00
2018-08-13T11:52:29.056Z,240.00
2018-08-13T11:53:28.986Z,164.00
2018-08-13T11:54:28.977Z,196.00
2018-08-13T11:55:28.976Z,148.00
2018-08-13T11:56:29.015Z,104.00
2018-08-13T11:57:28.944Z,104.00
2018-08-13T11:58:28.933Z,108.00
2018-08-13T11:59:29.929Z,116.00
2018-08-13T12:00:28.924Z,144.00
2018-08-13T12:01:28.900Z,144.00
2018-08-13T12:02:28.889Z,144.00
2018-08-13T12:03:28.878Z,152.00
2018-08-13T12:04:28.876Z,132.00
2018-08-13T12:05:28.877Z,128.00
2018-08-13T12:06:28.864Z,128.00
2018-08-13T12:07:28.855Z,132.00
2018-08-13T12:08:28.914Z,128.00
2018-08-13T12:09:28.812Z,124.00
2018-08-13T12:10:28.813Z,112.00
2018-08-13T12:11:28.811Z,112.00
2018-08-13T12:12:28.779Z,108.00
2018-08-13T12:13:28.769Z,100.00
2018-08-13T12:14:28.755Z,80.00
2018-08-13T12:15:28.757Z,88.00
2018-08-13T12:16:28.735Z,92.00
2018-08-13T12:17:28.753Z,88.00
2018-08-13T12:18:28.715Z,96.00
2018-08-13T12:19:28.736Z,100.00
2018-08-13T12:20:28.703Z,92.00
2018-08-13T12:21:28.683Z,84.00
2018-08-13T12:22:28.671Z,80.00
2018-08-13T12:23:28.664Z,80.00
2018-08-13T12:24:28.797Z,76.00
2018-08-13T12:25:28.690Z,80.00
2018-08-13T12:26:28.636Z,80.00
2018-08-13T12:27:28.632Z,80.00
2018-08-13T12:28:28.605Z,80.00
2018-08-13T12:29:28.640Z,80.00
2018-08-13T12:30:28.592Z,76.00
2018-08-13T12:31:28.572Z,76.00
2018-08-13T12:32:28.584Z,76.00
2018-08-13T12:33:28.551Z,72.00
2018-08-13T12:34:28.539Z,72.00
2018-08-13T12:35:28.553Z,68.00
2018-08-13T12:36:28.529Z,72.00
2018-08-13T12:37:28.510Z,76.00
2018-08-13T12:38:28.495Z,76.00
2018-08-13T12:39:28.483Z,80.00
2018-08-13T12:40:28.473Z,80.00
2018-08-13T12:41:28.843Z,80.00
2018-08-13T12:42:28.461Z,76.00
2018-08-13T12:43:28.440Z,80.00
2018-08-13T12:44:28.441Z,76.00
2018-08-13T12:45:28.423Z,76.00
2018-08-13T12:46:28.419Z,80.00
2018-08-13T12:47:28.429Z,88.00
2018-08-13T12:48:28.386Z,96.00
2018-08-13T12:49:28.375Z,96.00
2018-08-13T12:50:28.364Z,92.00
2018-08-13T12:51:28.365Z,88.00
2018-08-13T12:52:28.365Z,84.00
2018-08-13T12:53:28.340Z,84.00
2018-08-13T12:54:28.324Z,88.00
2018-08-13T12:55:28.309Z,104.00
2018-08-13T12:56:28.309Z,112.00
2018-08-13T12:57:28.289Z,116.00